The Canyons, Utah
Current Conditions -  °F | °C
As of 12:35 PM on Friday 31 Oct 2014 (Local Time) from K36U Reporting Station
Clear Clear  
Wind Chill: 61°   Ceiling: Unl
Heat Index: 61°   Visibility: 10mi
Dew Point: 28°   Wind: 0mph
Humidity: 29%   Direction: NA
Pressure: 30.05"   Gusts: NA
Location:  40.71°N, 111.53°W
Report Text: K36U 311835Z AUTO 00000KT 10SM CLR 16/M02 A3005 RMK AO2
Loading
Personal Weather Stations






























Interactive Weather Map
Tropical Storm Tracking
New forecast layout! Learn more

10-Day Weather Forecast

Advertisements
Track Severe Weather on mobile